Sayner, Wisconsin
Current Conditions -  °F | °C
As of 4:15 AM on Saturday 25 Oct 2014 (Local Time) from KARV Reporting Station
Clear Clear  
Wind Chill: 52°   Ceiling: Unl
Heat Index: 52°   Visibility: 10mi
Dew Point: 46°   Wind: 8mph
Humidity: 79%   Direction: 290°WNW
Pressure: 29.8"   Gusts: NA
Location:  45.99°N, 89.53°W
Report Text: KARV 250915Z AUTO 29007KT 10SM CLR 11/08 A2980 RMK AO2 T01100075
Loading
Personal Weather Stations






























Interactive Weather Map
Tropical Storm Tracking
New forecast layout! Learn more

10-Day Weather Forecast

Advertisements
Track Severe Weather on mobile